Time;durP1;ratioP1;P1;durP2;ratioP2;P2;SDS_P1;SDS_P2;PMS_P1;PMS_P2;Temp;Humidity;BMP_temperature;BMP_pressure;BME280_temperature;BME280_humidity;BME280_pressure;Samples;Min_cycle;Max_cycle;Signal;HPM_P1;HPM_P2
2022/11/22 00:00:17;;;;;;;;;;;;;;;10.32;49.30;98213.25;4511835;31;34704;-86
2022/11/22 00:02:45;;;;;;;;;;;;;;;11.13;47.18;98215.59;4501959;31;32832;-87
2022/11/22 00:05:12;;;;;;;;;;;;;;;11.35;46.56;98212.00;4516112;31;34158;-91
2022/11/22 00:07:39;;;;;;;;;;;;;;;11.16;47.08;98213.84;4509625;31;34335;-90
2022/11/22 00:10:08;;;;;;;;;;;;;;;11.35;46.46;98213.75;4501718;31;33580;-86
2022/11/22 00:12:35;;;;;;;;;;;;;;;11.24;46.75;98202.56;4514800;31;34229;-88
2022/11/22 00:15:02;;;;;;;;;;;;;;;11.08;46.93;98205.22;4499907;31;35391;-86
2022/11/22 00:17:30;;;;;;;;;;;;;;;10.20;48.94;98214.09;4502253;31;35047;-89
2022/11/22 00:19:57;;;;;;;;;;;;;;;8.10;54.43;98218.56;4499082;31;33938;-91
2022/11/22 00:22:25;;;;;;;;;;;;;;;9.20;51.81;98223.47;4515544;31;33833;-87
2022/11/22 00:24:52;;;;;;;;;;;;;;;10.15;49.72;98215.81;4513355;31;33934;-87
2022/11/22 00:27:20;;;;;;;;;;;;;;;9.33;50.91;98214.91;4514508;31;34111;-91
2022/11/22 00:29:47;;;;;;;;;;;;;;;10.28;49.18;98206.34;4515707;31;33197;-89
2022/11/22 00:32:14;;;;;;;;;;;;;;;10.39;48.96;98202.03;4501117;31;35085;-86
2022/11/22 00:34:41;;;;;;;;;;;;;;;10.18;49.42;98200.28;4499856;31;34359;-91
2022/11/22 00:37:08;;;;;;;;;;;;;;;8.94;52.79;98207.88;4500522;31;34066;-89
2022/11/22 00:39:36;;;;;;;;;;;;;;;9.51;51.36;98198.56;4500457;31;33181;-85
2022/11/22 00:42:03;;;;;;;;;;;;;;;7.29;57.26;98200.66;4512955;31;34104;-91
2022/11/22 00:44:30;;;;;;;;;;;;;;;7.90;56.04;98195.19;4515640;31;35198;-86
2022/11/22 00:46:57;;;;;;;;;;;;;;;8.28;55.25;98192.00;4508088;31;34759;-86
2022/11/22 00:49:25;;;;;;;;;;;;;;;7.59;57.13;98204.41;4498819;31;33285;-87
2022/11/22 00:51:52;;;;;;;;;;;;;;;7.80;56.56;98199.44;4499775;31;34046;-86
2022/11/22 00:54:19;;;;;;;;;;;;;;;7.39;57.59;98213.69;4499992;31;35270;-86
2022/11/22 00:56:46;;;;;;;;;;;;;;;7.49;57.86;98212.88;4482852;31;866947;-87
2022/11/22 00:59:13;;;;;;;;;;;;;;;7.57;57.77;98213.81;4509391;31;34022;-86
2022/11/22 01:01:41;;;;;;;;;;;;;;;7.37;58.47;98216.22;4510471;31;35103;-86
2022/11/22 01:04:08;;;;;;;;;;;;;;;6.96;60.22;98218.34;4514012;31;35175;-86
2022/11/22 01:06:35;;;;;;;;;;;;;;;6.66;60.74;98213.66;4515496;31;34485;-87
2022/11/22 01:09:03;;;;;;;;;;;;;;;7.28;59.05;98214.41;4500711;31;33244;-90
2022/11/22 01:11:30;;;;;;;;;;;;;;;8.02;56.94;98212.50;4499881;31;34054;-92
2022/11/22 01:13:57;;;;;;;;;;;;;;;7.31;59.09;98214.47;4504087;31;34139;-87
2022/11/22 01:16:24;;;;;;;;;;;;;;;6.53;61.69;98210.94;4504729;31;34212;-87
2022/11/22 01:18:51;;;;;;;;;;;;;;;7.22;59.91;98198.88;4503485;31;33424;-88
2022/11/22 01:21:18;;;;;;;;;;;;;;;6.95;60.59;98203.72;4499806;31;34095;-87
2022/11/22 01:23:46;;;;;;;;;;;;;;;7.19;60.10;98191.09;4506347;31;35282;-89
2022/11/22 01:26:13;;;;;;;;;;;;;;;6.72;61.03;98191.44;4511407;31;35074;-88
2022/11/22 01:28:40;;;;;;;;;;;;;;;7.05;60.53;98190.12;4500883;31;34262;-87
2022/11/22 01:31:08;;;;;;;;;;;;;;;6.60;61.03;98188.72;4508240;31;33556;-87
2022/11/22 01:33:35;;;;;;;;;;;;;;;7.09;60.50;98191.88;4501990;31;34398;-92
2022/11/22 01:36:02;;;;;;;;;;;;;;;7.34;59.17;98198.12;4501918;31;34375;-88
2022/11/22 01:38:29;;;;;;;;;;;;;;;7.64;58.90;98189.81;4509354;31;32591;-87
2022/11/22 01:40:56;;;;;;;;;;;;;;;7.74;58.59;98186.47;4514434;31;33826;-91
2022/11/22 01:43:24;;;;;;;;;;;;;;;7.47;59.11;98193.97;4513632;31;33881;-87
2022/11/22 01:45:55;;;;;;;;;;;;;;;6.68;61.31;98199.12;4504322;31;34050;-92
2022/11/22 01:48:38;;;;;;;;;;;;;;;7.26;59.26;98195.47;4504588;31;34096;-91
2022/11/22 01:51:14;;;;;;;;;;;;;;;6.26;62.36;98190.84;4512167;31;33674;-87
2022/11/22 01:53:41;;;;;;;;;;;;;;;6.33;62.56;98194.37;4499211;31;34400;-88
2022/11/22 01:56:09;;;;;;;;;;;;;;;6.15;63.54;98200.13;4511547;31;34975;-88
2022/11/22 01:58:36;;;;;;;;;;;;;;;5.49;65.70;98199.03;4504428;31;33051;-90
2022/11/22 02:01:03;;;;;;;;;;;;;;;6.74;62.12;98191.44;4499090;31;34817;-92
2022/11/22 02:03:31;;;;;;;;;;;;;;;7.74;59.13;98186.47;4505685;31;34504;-87
2022/11/22 02:05:59;;;;;;;;;;;;;;;7.52;60.01;98189.72;4514926;31;35047;-87
2022/11/22 02:08:29;;;;;;;;;;;;;;;8.21;57.53;98185.94;4514819;31;33177;-92
2022/11/22 02:10:56;;;;;;;;;;;;;;;7.64;59.18;98184.66;4511346;31;35026;-93
2022/11/22 02:13:24;;;;;;;;;;;;;;;8.08;57.46;98184.16;4502934;31;34763;-93
2022/11/22 02:15:51;;;;;;;;;;;;;;;8.11;57.69;98176.44;4515211;31;34170;-93
2022/11/22 02:18:18;;;;;;;;;;;;;;;8.36;57.46;98167.09;4513595;31;34160;-88
2022/11/22 02:20:45;;;;;;;;;;;;;;;7.52;59.45;98169.09;4512762;31;34113;-93
2022/11/22 02:23:18;;;;;;;;;;;;;;;6.62;62.65;98168.12;4500471;31;34334;-91
2022/11/22 02:25:53;;;;;;;;;;;;;;;7.10;61.33;98172.13;4508301;31;33718;-88
2022/11/22 02:28:20;;;;;;;;;;;;;;;7.94;58.93;98165.13;4507770;31;34074;-89
2022/11/22 02:30:47;;;;;;;;;;;;;;;6.94;62.43;98166.78;4513681;31;34123;-89
2022/11/22 02:33:15;;;;;;;;;;;;;;;7.75;59.64;98164.97;4500578;31;35252;-92
2022/11/22 02:35:42;;;;;;;;;;;;;;;6.84;62.71;98167.53;4503016;31;35052;-87
2022/11/22 02:38:11;;;;;;;;;;;;;;;7.64;60.33;98156.28;4509590;31;33449;-92
2022/11/22 02:40:42;;;;;;;;;;;;;;;7.22;61.77;98161.94;4504342;31;34881;-87
2022/11/22 02:43:10;;;;;;;;;;;;;;;7.09;62.47;98163.53;4514185;31;33884;-89
2022/11/22 02:45:37;;;;;;;;;;;;;;;6.23;65.01;98159.91;4509351;31;34750;-92
2022/11/22 02:48:12;;;;;;;;;;;;;;;7.22;61.88;98157.63;4499324;31;33453;-90
2022/11/22 02:50:40;;;;;;;;;;;;;;;8.15;59.33;98157.53;4498702;31;33922;-88
2022/11/22 02:53:07;;;;;;;;;;;;;;;7.25;61.79;98159.38;4513596;31;34837;-90
2022/11/22 02:55:35;;;;;;;;;;;;;;;8.40;58.52;98149.94;4511846;31;34797;-93
2022/11/22 02:58:04;;;;;;;;;;;;;;;8.65;58.02;98159.53;4509825;31;34294;-89
2022/11/22 03:00:32;;;;;;;;;;;;;;;8.35;58.69;98160.22;4499087;31;33638;-88
2022/11/22 03:02:59;;;;;;;;;;;;;;;8.13;59.51;98154.06;4511682;31;35169;-88
2022/11/22 03:05:27;;;;;;;;;;;;;;;7.60;60.36;98151.94;4512300;31;34099;-88
2022/11/22 03:07:54;;;;;;;;;;;;;;;6.92;63.41;98153.03;4499011;31;32958;-93
2022/11/22 03:10:21;;;;;;;;;;;;;;;7.23;61.90;98161.94;4499271;31;35140;-92
2022/11/22 03:12:48;;;;;;;;;;;;;;;8.24;59.11;98147.25;4514156;31;33665;-89
2022/11/22 03:15:16;;;;;;;;;;;;;;;7.67;60.68;98143.41;4513531;31;34781;-93
2022/11/22 03:17:43;;;;;;;;;;;;;;;7.64;61.25;98156.28;4505540;31;33519;-88
2022/11/22 03:20:11;;;;;;;;;;;;;;;8.15;59.69;98152.38;4514466;31;34685;-92
2022/11/22 03:22:38;;;;;;;;;;;;;;;8.68;57.83;98151.78;4514283;31;33624;-93
2022/11/22 03:25:05;;;;;;;;;;;;;;;8.95;57.30;98156.19;4512472;31;35251;-94
2022/11/22 03:27:33;;;;;;;;;;;;;;;9.27;56.40;98143.31;4506277;31;33932;-88
2022/11/22 03:30:00;;;;;;;;;;;;;;;9.93;54.46;98145.09;4503382;31;33549;-89
2022/11/22 03:32:27;;;;;;;;;;;;;;;9.11;56.57;98151.06;4498395;31;34989;-89
2022/11/22 03:34:54;;;;;;;;;;;;;;;8.16;59.57;98154.06;4501697;31;32774;-93
2022/11/22 03:37:21;;;;;;;;;;;;;;;7.82;60.62;98154.72;4507999;31;33276;-93
2022/11/22 03:39:49;;;;;;;;;;;;;;;8.19;59.12;98146.34;4498260;31;34569;-92
2022/11/22 03:42:16;;;;;;;;;;;;;;;7.95;59.05;98146.19;4498138;31;35274;-91
2022/11/22 03:44:48;;;;;;;;;;;;;;;8.58;58.44;98147.44;4508581;31;34271;-89
2022/11/22 03:47:15;;;;;;;;;;;;;;;9.11;56.85;98132.97;4502072;31;34132;-88
2022/11/22 03:49:43;;;;;;;;;;;;;;;9.92;54.53;98132.97;4513387;31;34145;-89
2022/11/22 03:52:10;;;;;;;;;;;;;;;9.87;54.45;98132.13;4513944;31;35159;-89
2022/11/22 03:54:37;;;;;;;;;;;;;;;9.19;56.15;98142.44;4509582;31;34408;-89
2022/11/22 03:57:05;;;;;;;;;;;;;;;8.29;58.66;98134.34;4509766;31;33421;-88
2022/11/22 03:59:32;;;;;;;;;;;;;;;8.48;58.15;98141.34;4498191;31;34147;-91
2022/11/22 04:01:59;;;;;;;;;;;;;;;9.35;55.45;98126.94;4498246;31;35304;-90
2022/11/22 04:04:27;;;;;;;;;;;;;;;8.28;58.76;98130.91;4499085;31;35180;-89
2022/11/22 04:06:54;;;;;;;;;;;;;;;9.14;56.18;98131.25;4508778;31;32985;-93
2022/11/22 04:09:21;;;;;;;;;;;;;;;9.36;55.19;98124.38;4509468;31;33711;-91
2022/11/22 04:11:49;;;;;;;;;;;;;;;8.90;56.13;98133.75;4504353;31;34266;-88
2022/11/22 04:17:02;;;;;;;;;;;;;;;9.44;53.79;98121.81;4511273;31;32937;-89
2022/11/22 04:19:29;;;;;;;;;;;;;;;7.93;58.69;98128.13;4499855;31;33752;-93
2022/11/22 04:21:57;;;;;;;;;;;;;;;6.90;61.13;98130.69;4513775;31;33862;-87
2022/11/22 04:27:10;;;;;;;;;;;;;;;7.10;61.22;98134.31;4502376;31;33082;-87
2022/11/22 04:29:38;;;;;;;;;;;;;;;6.83;61.47;98125.44;4515913;31;33648;-88
2022/11/22 04:34:51;;;;;;;;;;;;;;;7.71;58.81;98132.25;4512866;31;34542;-92
2022/11/22 04:37:19;;;;;;;;;;;;;;;6.44;62.11;98123.28;4501011;31;31511;-92
2022/11/22 04:39:46;;;;;;;;;;;;;;;6.50;62.16;98125.06;4500415;31;34067;-88
2022/11/22 04:44:59;;;;;;;;;;;;;;;6.48;61.94;98126.78;4508248;31;33708;-89
2022/11/22 04:53:19;;;;;;;;;;;;;;;7.36;59.38;98120.81;4473823;32;35382;-90
2022/11/22 04:55:46;;;;;;;;;;;;;;;6.37;62.40;98124.06;4497867;31;34267;-93
2022/11/22 04:58:14;;;;;;;;;;;;;;;5.36;65.78;98133.69;4508471;31;33103;-92
2022/11/22 05:00:41;;;;;;;;;;;;;;;5.85;64.10;98129.31;4501515;31;34915;-88
2022/11/22 05:03:09;;;;;;;;;;;;;;;6.81;60.98;98132.28;4515121;31;35207;-88
2022/11/22 05:05:36;;;;;;;;;;;;;;;5.62;64.44;98140.97;4512072;31;34037;-92
2022/11/22 05:08:04;;;;;;;;;;;;;;;5.67;64.27;98141.03;4497783;31;33364;-92
2022/11/22 05:10:55;;;;;;;;;;;;;;;5.62;64.69;98139.25;4512712;31;33839;-88
2022/11/22 05:13:20;;;;;;;;;;;;;;;5.54;64.78;98128.00;4515113;31;34251;-89
2022/11/22 05:15:50;;;;;;;;;;;;;;;6.38;62.83;98145.50;4506971;31;34256;-88
2022/11/22 05:18:17;;;;;;;;;;;;;;;6.23;62.82;98136.75;4509615;31;33154;-93
2022/11/22 05:20:47;;;;;;;;;;;;;;;6.42;62.39;98140.41;4503696;31;33577;-91
2022/11/22 05:26:00;;;;;;;;;;;;;;;6.86;61.02;98154.66;4507134;31;33851;-88
2022/11/22 05:28:28;;;;;;;;;;;;;;;6.11;62.11;98134.00;4511699;31;33778;-88
2022/11/22 05:30:55;;;;;;;;;;;;;;;7.00;59.40;98156.53;4509288;31;34131;-90
2022/11/22 05:33:23;;;;;;;;;;;;;;;6.55;60.67;98146.56;4499764;31;34482;-91
2022/11/22 05:35:50;;;;;;;;;;;;;;;5.76;62.68;98147.19;4507847;31;33996;-88
2022/11/22 05:38:18;;;;;;;;;;;;;;;5.58;63.29;98149.47;4512807;31;33493;-92
2022/11/22 05:40:46;;;;;;;;;;;;;;;5.46;63.75;98139.00;4502392;31;34831;-92
2022/11/22 05:43:13;;;;;;;;;;;;;;;4.63;66.58;98132.38;4501672;31;35364;-87
2022/11/22 05:45:40;;;;;;;;;;;;;;;5.00;65.30;98113.38;4508360;31;34321;-90
2022/11/22 05:48:18;;;;;;;;;;;;;;;5.34;63.75;98130.25;4504094;31;34241;-93
2022/11/22 05:50:45;;;;;;;;;;;;;;;5.67;63.10;98135.88;4504840;31;33933;-92
2022/11/22 05:53:13;;;;;;;;;;;;;;;6.78;59.35;98147.72;4503307;31;34576;-87
2022/11/22 05:55:40;;;;;;;;;;;;;;;6.83;58.23;98151.22;4506843;31;34668;-92
2022/11/22 05:58:07;;;;;;;;;;;;;;;5.64;62.20;98162.41;4508697;31;33865;-93
2022/11/22 06:00:34;;;;;;;;;;;;;;;6.76;59.16;98149.41;4506607;31;34151;-92
2022/11/22 06:03:02;;;;;;;;;;;;;;;6.28;59.84;98158.25;4510611;31;35332;-88
2022/11/22 06:05:30;;;;;;;;;;;;;;;5.48;61.96;98168.16;4505975;31;34724;-88
2022/11/22 06:07:58;;;;;;;;;;;;;;;6.32;60.19;98152.28;4498013;31;34055;-92
2022/11/22 06:10:26;;;;;;;;;;;;;;;5.37;62.32;98166.25;4497659;31;35268;-94
2022/11/22 06:12:53;;;;;;;;;;;;;;;5.30;62.47;98164.44;4496863;31;34963;-92
2022/11/22 06:15:21;;;;;;;;;;;;;;;5.48;62.54;98174.16;4503675;31;35070;-91
2022/11/22 06:17:48;;;;;;;;;;;;;;;4.91;64.24;98184.25;4515600;31;33149;-92
2022/11/22 06:20:15;;;;;;;;;;;;;;;4.79;64.14;98182.31;4508765;31;34001;-92
2022/11/22 06:22:42;;;;;;;;;;;;;;;5.27;63.28;98179.81;4506156;31;33915;-91
2022/11/22 06:25:10;;;;;;;;;;;;;;;5.04;63.38;98181.94;4499430;31;35097;-92
2022/11/22 06:27:37;;;;;;;;;;;;;;;5.05;63.47;98172.53;4505053;31;33336;-89
2022/11/22 06:30:05;;;;;;;;;;;;;;;5.34;62.47;98160.19;4515104;31;34321;-94
2022/11/22 06:32:33;;;;;;;;;;;;;;;5.64;61.55;98164.13;4514288;31;34336;-89
2022/11/22 06:35:00;;;;;;;;;;;;;;;4.73;64.26;98156.50;4514806;31;34260;-90
2022/11/22 06:37:28;;;;;;;;;;;;;;;4.71;65.23;98156.47;4511088;31;33813;-89
2022/11/22 06:39:55;;;;;;;;;;;;;;;5.40;63.23;98165.44;4499552;31;34833;-92
2022/11/22 06:42:22;;;;;;;;;;;;;;;5.17;64.01;98171.91;4498397;31;34376;-93
2022/11/22 06:44:50;;;;;;;;;;;;;;;5.91;61.98;98164.56;4499354;31;35056;-93
2022/11/22 06:47:18;;;;;;;;;;;;;;;5.35;63.58;98167.94;4498095;31;34351;-93
2022/11/22 06:49:45;;;;;;;;;;;;;;;5.20;64.11;98172.81;4507932;31;34540;-94
2022/11/22 06:52:12;;;;;;;;;;;;;;;5.13;64.88;98178.69;4498730;31;34365;-88
2022/11/22 06:54:40;;;;;;;;;;;;;;;4.81;66.17;98178.94;4501521;31;34957;-94
2022/11/22 06:57:07;;;;;;;;;;;;;;;4.97;66.04;98184.38;4499096;31;33959;-88
2022/11/22 06:59:34;;;;;;;;;;;;;;;5.07;65.30;98168.28;4498946;31;33794;-94
2022/11/22 07:02:01;;;;;;;;;;;;;;;6.32;62.44;98149.72;4499035;31;34635;-88
2022/11/22 07:04:32;;;;;;;;;;;;;;;5.41;64.08;98162.03;4497749;31;34443;-95
2022/11/22 07:07:00;;;;;;;;;;;;;;;5.22;65.76;98165.97;4499243;31;33212;-94
2022/11/22 07:09:27;;;;;;;;;;;;;;;5.91;63.10;98168.81;4501424;31;33448;-94
2022/11/22 07:11:54;;;;;;;;;;;;;;;5.78;63.92;98168.62;4498552;31;34393;-94
2022/11/22 07:14:22;;;;;;;;;;;;;;;5.27;64.65;98168.66;4497746;31;33980;-93
2022/11/22 07:16:49;;;;;;;;;;;;;;;5.27;64.91;98163.53;4499035;31;33497;-89
2022/11/22 07:19:16;;;;;;;;;;;;;;;5.68;63.29;98156.47;4508129;31;33980;-94
2022/11/22 07:21:43;;;;;;;;;;;;;;;5.11;66.00;98167.50;4514860;31;34241;-93
2022/11/22 07:24:11;;;;;;;;;;;;;;;5.77;63.73;98151.50;4513627;31;34112;-88
2022/11/22 07:26:38;;;;;;;;;;;;;;;5.78;63.68;98170.34;4514546;31;33052;-94
2022/11/22 07:29:05;;;;;;;;;;;;;;;5.92;62.50;98165.44;4507573;31;33644;-92
2022/11/22 07:31:33;;;;;;;;;;;;;;;5.47;64.26;98174.13;4513344;31;34191;-93
2022/11/22 07:34:01;;;;;;;;;;;;;;;5.73;63.60;98175.44;4514608;31;34325;-90
2022/11/22 07:36:29;;;;;;;;;;;;;;;5.46;64.54;98178.41;4514190;31;33618;-87
2022/11/22 07:38:56;;;;;;;;;;;;;;;5.64;64.04;98179.53;4507495;31;33513;-92
2022/11/22 07:41:24;;;;;;;;;;;;;;;5.87;63.62;98167.91;4514510;31;34342;-93
2022/11/22 07:43:51;;;;;;;;;;;;;;;5.78;63.55;98168.62;4514505;31;34146;-91
2022/11/22 07:46:20;;;;;;;;;;;;;;;5.47;64.58;98161.28;4514402;31;34159;-88
2022/11/22 07:48:48;;;;;;;;;;;;;;;6.21;62.41;98164.19;4510796;31;33554;-93
2022/11/22 07:51:15;;;;;;;;;;;;;;;5.80;64.16;98161.81;4512585;31;33996;-88
2022/11/22 07:53:44;;;;;;;;;;;;;;;5.64;65.13;98170.13;4514515;31;34335;-88
2022/11/22 07:56:11;;;;;;;;;;;;;;;6.26;63.49;98149.66;4514364;31;32856;-89
2022/11/22 07:58:38;;;;;;;;;;;;;;;6.83;61.80;98150.34;4504396;31;34255;-89
2022/11/22 08:01:07;;;;;;;;;;;;;;;6.88;61.35;98153.84;4500265;31;35279;-93
2022/11/22 08:03:34;;;;;;;;;;;;;;;5.95;62.88;98155.22;4500552;31;34977;-93
2022/11/22 08:06:02;;;;;;;;;;;;;;;5.55;65.15;98162.28;4500632;31;34170;-90
2022/11/22 08:08:29;;;;;;;;;;;;;;;5.75;65.48;98147.16;4510670;31;34709;-91
2022/11/22 08:10:57;;;;;;;;;;;;;;;5.67;65.06;98159.88;4514630;31;34491;-89
2022/11/22 08:13:24;;;;;;;;;;;;;;;6.05;63.79;98149.34;4515084;31;34805;-88
2022/11/22 08:15:51;;;;;;;;;;;;;;;5.79;64.87;98159.22;4514939;31;33511;-82
2022/11/22 08:18:21;;;;;;;;;;;;;;;5.48;65.45;98147.56;4506534;31;33869;-92
2022/11/22 08:20:48;;;;;;;;;;;;;;;6.41;63.29;98140.41;4500887;31;34217;-92
2022/11/22 08:23:15;;;;;;;;;;;;;;;6.89;61.68;98149.53;4511227;31;34546;-88
2022/11/22 08:25:43;;;;;;;;;;;;;;;6.12;63.69;98140.87;4508530;31;34193;-87
2022/11/22 08:28:10;;;;;;;;;;;;;;;5.92;64.91;98150.88;4503299;31;34764;-94
2022/11/22 08:30:37;;;;;;;;;;;;;;;5.42;66.44;98147.47;4499985;31;34517;-88
2022/11/22 08:33:04;;;;;;;;;;;;;;;5.69;66.20;98157.34;4499402;31;33954;-91
2022/11/22 08:35:31;;;;;;;;;;;;;;;6.14;64.60;98152.06;4500018;31;33192;-88
2022/11/22 08:37:59;;;;;;;;;;;;;;;5.42;66.49;98162.88;4499836;31;33870;-89
2022/11/22 08:40:26;;;;;;;;;;;;;;;5.81;65.69;98157.53;4499740;31;34456;-90
2022/11/22 08:42:54;;;;;;;;;;;;;;;6.11;64.58;98151.16;4507378;31;34120;-94
2022/11/22 08:45:22;;;;;;;;;;;;;;;5.51;66.39;98157.91;4486377;31;33016;-90
2022/11/22 08:47:51;;;;;;;;;;;;;;;6.07;65.08;98145.09;4500141;31;34161;-94
2022/11/22 08:50:18;;;;;;;;;;;;;;;5.61;66.12;98150.38;4500359;31;35412;-92
2022/11/22 08:52:45;;;;;;;;;;;;;;;5.37;67.13;98155.09;4500401;31;33865;-94
2022/11/22 08:55:12;;;;;;;;;;;;;;;5.46;67.12;98154.41;4500459;31;33214;-89
2022/11/22 08:57:40;;;;;;;;;;;;;;;5.64;66.69;98154.69;4499258;31;33748;-94
2022/11/22 09:00:07;;;;;;;;;;;;;;;5.51;67.55;98156.22;4500687;31;33937;-92
2022/11/22 09:02:35;;;;;;;;;;;;;;;5.54;67.84;98161.41;4500052;31;34997;-88
2022/11/22 09:05:02;;;;;;;;;;;;;;;5.89;66.72;98153.38;4500407;31;34119;-91
2022/11/22 09:07:29;;;;;;;;;;;;;;;5.90;66.54;98151.66;4499040;31;34362;-90
2022/11/22 09:10:17;;;;;;;;;;;;;;;6.05;66.08;98142.50;4499679;31;34344;-91
2022/11/22 09:12:44;;;;;;;;;;;;;;;6.08;66.28;98155.41;4499916;31;35028;-88
2022/11/22 09:15:11;;;;;;;;;;;;;;;5.70;67.50;98141.09;4500288;31;33405;-91
2022/11/22 09:17:39;;;;;;;;;;;;;;;5.54;67.84;98134.84;4499913;31;35071;-92
2022/11/22 09:20:06;;;;;;;;;;;;;;;5.75;66.82;98135.16;4500073;31;35195;-90
2022/11/22 09:22:33;;;;;;;;;;;;;;;5.47;67.89;98149.28;4499924;31;34913;-92
2022/11/22 09:25:01;;;;;;;;;;;;;;;5.13;70.10;98132.44;4500197;31;33551;-93
2022/11/22 09:27:28;;;;;;;;;;;;;;;5.68;68.02;98140.19;4499983;31;34035;-92
2022/11/22 09:29:56;;;;;;;;;;;;;;;5.56;68.74;98128.00;4499852;31;34075;-94
2022/11/22 09:32:23;;;;;;;;;;;;;;;6.11;66.88;98126.28;4499992;31;34784;-89
2022/11/22 09:34:58;;;;;;;;;;;;;;;6.30;66.26;98138.56;4499954;31;34253;-88
2022/11/22 09:37:25;;;;;;;;;;;;;;;6.51;65.36;98126.78;4500187;31;34335;-94
2022/11/22 09:39:53;;;;;;;;;;;;;;;5.94;67.44;98130.31;4500166;31;34264;-92
2022/11/22 09:42:32;;;;;;;;;;;;;;;6.43;66.06;98107.81;4500191;31;34793;-91
2022/11/22 09:45:15;;;;;;;;;;;;;;;6.04;66.84;98114.19;4498975;31;33322;-88
2022/11/22 09:47:54;;;;;;;;;;;;;;;7.25;63.96;98098.38;4498498;31;35244;-90
2022/11/22 09:50:28;;;;;;;;;;;;;;;7.48;63.16;98101.13;4500043;31;33608;-94
2022/11/22 09:52:57;;;;;;;;;;;;;;;7.18;63.58;98094.00;4498322;31;34993;-90
2022/11/22 09:55:31;;;;;;;;;;;;;;;6.87;64.85;98092.00;4500132;31;33824;-92
2022/11/22 09:58:21;;;;;;;;;;;;;;;7.04;64.79;98103.31;4499824;31;35137;-93
2022/11/22 10:00:49;;;;;;;;;;;;;;;7.61;62.87;98090.91;4497304;31;34171;-94
2022/11/22 10:03:25;;;;;;;;;;;;;;;7.38;63.46;98094.16;4498540;31;34913;-93
2022/11/22 10:05:52;;;;;;;;;;;;;;;7.39;64.01;98083.03;4499729;31;33441;-90
2022/11/22 10:08:46;;;;;;;;;;;;;;;7.29;64.02;98079.50;4499673;31;34321;-87
2022/11/22 10:11:36;;;;;;;;;;;;;;;7.23;64.07;98082.00;4492913;31;34289;-89
2022/11/22 10:14:08;;;;;;;;;;;;;;;6.76;66.23;98082.44;4497075;31;33951;-87
2022/11/22 10:16:40;;;;;;;;;;;;;;;7.56;63.97;98068.53;4498199;31;33363;-94
2022/11/22 10:19:13;;;;;;;;;;;;;;;8.13;61.98;98071.44;4499861;31;35028;-87
2022/11/22 10:21:41;;;;;;;;;;;;;;;7.69;62.58;98069.50;4499734;31;34356;-87
2022/11/22 10:24:11;;;;;;;;;;;;;;;7.14;64.40;98070.78;4499987;31;33949;-92
2022/11/22 10:26:38;;;;;;;;;;;;;;;7.54;63.44;98064.22;4498304;31;33412;-90
2022/11/22 10:29:15;;;;;;;;;;;;;;;7.32;64.00;98061.47;4499602;31;34322;-93
2022/11/22 10:31:42;;;;;;;;;;;;;;;7.74;63.10;98062.63;4498017;31;34576;-89
2022/11/22 10:34:15;;;;;;;;;;;;;;;7.36;63.91;98056.34;4499463;31;33987;-93
2022/11/22 10:36:48;;;;;;;;;;;;;;;7.47;63.83;98036.66;4498257;31;34073;-90
2022/11/22 10:39:30;;;;;;;;;;;;;;;7.23;64.55;98042.50;4499437;31;34069;-93
2022/11/22 10:42:22;;;;;;;;;;;;;;;6.77;65.48;98035.22;4498221;31;34422;-93
2022/11/22 10:45:08;;;;;;;;;;;;;;;6.59;67.02;98045.34;4498064;31;33928;-88
2022/11/22 10:47:42;;;;;;;;;;;;;;;6.88;66.32;98030.16;4499163;31;34161;-88
2022/11/22 10:50:15;;;;;;;;;;;;;;;7.03;64.99;98024.28;4499372;31;34932;-90
2022/11/22 10:52:51;;;;;;;;;;;;;;;6.99;65.14;98023.41;4499133;31;34616;-94
2022/11/22 10:55:40;;;;;;;;;;;;;;;7.24;64.97;98014.16;4498221;31;34091;-88
2022/11/22 10:58:13;;;;;;;;;;;;;;;7.59;64.09;98020.41;4497602;31;34339;-91
2022/11/22 11:00:42;;;;;;;;;;;;;;;7.29;64.47;98007.31;4498174;31;35082;-88
2022/11/22 11:03:10;;;;;;;;;;;;;;;6.73;66.58;97999.97;4498219;31;34490;-88
2022/11/22 11:05:42;;;;;;;;;;;;;;;7.24;65.19;97987.53;4499095;31;35130;-92
2022/11/22 11:08:33;;;;;;;;;;;;;;;7.25;65.12;97987.53;4498304;31;33372;-93
2022/11/22 11:11:20;;;;;;;;;;;;;;;7.53;64.42;97982.53;4499264;31;33945;-93
2022/11/22 11:13:58;;;;;;;;;;;;;;;7.56;64.64;97979.97;4497573;31;34015;-93
2022/11/22 11:16:27;;;;;;;;;;;;;;;7.45;64.80;97979.06;4497981;31;34220;-87
2022/11/22 11:18:55;;;;;;;;;;;;;;;7.80;63.75;97984.38;4497983;31;33968;-90
2022/11/22 11:21:22;;;;;;;;;;;;;;;7.38;65.11;97980.72;4498859;31;35168;-92
2022/11/22 11:23:49;;;;;;;;;;;;;;;7.13;65.70;97977.12;4498937;31;35199;-93
2022/11/22 11:26:17;;;;;;;;;;;;;;;7.53;64.71;97987.69;4498910;31;34003;-93
2022/11/22 11:28:45;;;;;;;;;;;;;;;7.64;64.97;97974.88;4498479;31;32843;-88
2022/11/22 11:31:12;;;;;;;;;;;;;;;8.09;62.93;97958.72;4497830;31;34190;-93
2022/11/22 11:33:40;;;;;;;;;;;;;;;8.28;62.28;97963.06;4500400;31;34859;-93
2022/11/22 11:36:20;;;;;;;;;;;;;;;8.16;62.44;97957.03;4499309;31;33864;-94
2022/11/22 11:38:53;;;;;;;;;;;;;;;7.87;63.93;97954.31;4499406;31;33516;-92
2022/11/22 11:41:30;;;;;;;;;;;;;;;8.37;62.40;97945.88;4500628;31;35215;-93
2022/11/22 11:43:58;;;;;;;;;;;;;;;8.53;61.40;97938.19;4500755;31;34503;-93
2022/11/22 11:46:26;;;;;;;;;;;;;;;8.71;61.22;97942.53;4499450;31;33900;-86
2022/11/22 11:48:54;;;;;;;;;;;;;;;7.98;62.88;97944.91;4499752;31;33034;-94
2022/11/22 11:51:28;;;;;;;;;;;;;;;8.02;62.92;97938.91;4500779;31;35167;-93
2022/11/22 11:53:57;;;;;;;;;;;;;;;8.31;62.71;97927.78;4499234;31;34056;-90
2022/11/22 11:56:28;;;;;;;;;;;;;;;7.25;65.91;97930.81;4499318;31;34268;-92
2022/11/22 11:58:55;;;;;;;;;;;;;;;7.59;65.71;97928.41;4500479;31;34241;-88
2022/11/22 12:01:23;;;;;;;;;;;;;;;8.35;63.25;97914.88;4500460;31;34998;-93
2022/11/22 12:03:52;;;;;;;;;;;;;;;8.72;61.60;97908.06;4499456;31;33969;-93
2022/11/22 12:06:19;;;;;;;;;;;;;;;8.20;63.63;97909.69;4501129;31;34220;-93
2022/11/22 12:08:46;;;;;;;;;;;;;;;8.53;61.54;97902.03;4500583;31;33276;-89
2022/11/22 12:11:16;;;;;;;;;;;;;;;7.85;63.42;97905.31;4500560;31;35018;-89
2022/11/22 12:13:48;;;;;;;;;;;;;;;8.05;63.45;97905.34;4500419;31;33517;-92
2022/11/22 12:16:40;;;;;;;;;;;;;;;8.02;63.75;97893.28;4499403;31;34938;-87
2022/11/22 12:19:16;;;;;;;;;;;;;;;8.61;62.55;97877.91;4499246;31;33415;-88
2022/11/22 12:22:01;;;;;;;;;;;;;;;8.76;61.88;97876.19;4500444;31;34195;-93
2022/11/22 12:24:28;;;;;;;;;;;;;;;8.58;61.68;97872.75;4499114;31;34358;-93
2022/11/22 12:27:16;;;;;;;;;;;;;;;8.68;61.81;97872.75;4500130;31;34657;-92
2022/11/22 12:29:43;;;;;;;;;;;;;;;8.35;62.65;97880.47;4500452;31;33532;-92
2022/11/22 12:32:11;;;;;;;;;;;;;;;8.95;61.43;97876.16;4500390;31;34103;-93
2022/11/22 12:34:59;;;;;;;;;;;;;;;8.32;62.93;97868.41;4499317;31;33838;-92
2022/11/22 12:37:27;;;;;;;;;;;;;;;8.17;63.29;97866.66;4498944;31;34939;-89
2022/11/22 12:39:57;;;;;;;;;;;;;;;8.78;61.54;97869.28;4500301;31;33152;-88
2022/11/22 12:42:24;;;;;;;;;;;;;;;8.38;62.95;97860.69;4498847;31;33815;-89
2022/11/22 12:44:53;;;;;;;;;;;;;;;8.83;62.13;97843.44;4499490;31;35256;-93
2022/11/22 12:47:21;;;;;;;;;;;;;;;7.95;64.22;97854.56;4500375;31;34077;-94
2022/11/22 12:49:55;;;;;;;;;;;;;;;8.18;63.65;97857.19;4500464;31;33164;-92
2022/11/22 12:52:24;;;;;;;;;;;;;;;7.97;64.59;97852.88;4499151;31;33882;-88
2022/11/22 12:54:55;;;;;;;;;;;;;;;8.24;63.42;97842.56;4498649;31;34320;-90
2022/11/22 12:57:24;;;;;;;;;;;;;;;8.41;62.90;97834.88;4498990;31;33940;-92
2022/11/22 12:59:51;;;;;;;;;;;;;;;7.78;64.90;97836.47;4500296;31;33114;-93
2022/11/22 13:02:31;;;;;;;;;;;;;;;7.73;65.43;97844.22;4500192;31;33872;-88
2022/11/22 13:05:13;;;;;;;;;;;;;;;7.82;64.59;97842.50;4499930;31;35893;-92
2022/11/22 13:07:55;;;;;;;;;;;;;;;7.90;64.82;97840.81;4500063;31;34583;-94
2022/11/22 13:10:36;;;;;;;;;;;;;;;7.76;65.14;97854.53;4500166;31;32855;-88
2022/11/22 13:13:03;;;;;;;;;;;;;;;7.50;66.29;97851.00;4498437;31;34157;-93
2022/11/22 13:15:31;;;;;;;;;;;;;;;7.51;66.30;97839.84;4498784;31;34301;-94
2022/11/22 13:17:59;;;;;;;;;;;;;;;7.60;65.96;97845.03;4498835;31;34871;-89
2022/11/22 13:20:28;;;;;;;;;;;;;;;7.19;67.44;97840.53;4500076;31;33397;-88
2022/11/22 13:23:03;;;;;;;;;;;;;;;7.37;66.72;97850.09;4498895;31;35069;-92
2022/11/22 13:25:31;;;;;;;;;;;;;;;6.99;67.89;97861.06;4498752;31;34385;-94
2022/11/22 13:27:59;;;;;;;;;;;;;;;6.64;69.18;97860.84;4500169;31;35090;-91